sensor_id;sensor_type;location;lat;lon;timestamp;P1;durP1;ratioP1;P2;durP2;ratioP2
42682;SDS011;28293;50.930;3.464;2023-08-12T00:00:09;11.68;;;5.40;;
42682;SDS011;28293;50.930;3.464;2023-08-12T00:02:39;12.85;;;5.63;;
42682;SDS011;28293;50.930;3.464;2023-08-12T00:05:06;10.75;;;5.93;;
42682;SDS011;28293;50.930;3.464;2023-08-12T00:07:33;10.40;;;5.55;;
42682;SDS011;28293;50.930;3.464;2023-08-12T00:10:02;11.52;;;6.00;;
42682;SDS011;28293;50.930;3.464;2023-08-12T00:12:29;11.23;;;5.88;;
42682;SDS011;28293;50.930;3.464;2023-08-12T00:14:59;14.00;;;6.00;;
42682;SDS011;28293;50.930;3.464;2023-08-12T00:17:25;10.98;;;5.30;;
42682;SDS011;28293;50.930;3.464;2023-08-12T00:19:51;14.95;;;5.53;;
42682;SDS011;28293;50.930;3.464;2023-08-12T00:22:17;12.95;;;5.85;;
42682;SDS011;28293;50.930;3.464;2023-08-12T00:24:43;11.65;;;5.07;;
42682;SDS011;28293;50.930;3.464;2023-08-12T00:27:09;11.02;;;4.95;;
42682;SDS011;28293;50.930;3.464;2023-08-12T00:29:35;9.60;;;5.20;;
42682;SDS011;28293;50.930;3.464;2023-08-12T00:32:01;10.65;;;5.07;;
42682;SDS011;28293;50.930;3.464;2023-08-12T00:34:27;9.88;;;5.20;;
42682;SDS011;28293;50.930;3.464;2023-08-12T00:36:53;9.93;;;4.82;;
42682;SDS011;28293;50.930;3.464;2023-08-12T00:39:18;10.57;;;5.35;;
42682;SDS011;28293;50.930;3.464;2023-08-12T00:41:44;11.70;;;5.60;;
42682;SDS011;28293;50.930;3.464;2023-08-12T00:44:10;11.35;;;5.40;;
42682;SDS011;28293;50.930;3.464;2023-08-12T00:46:38;11.70;;;5.68;;
42682;SDS011;28293;50.930;3.464;2023-08-12T00:49:05;10.32;;;4.90;;
42682;SDS011;28293;50.930;3.464;2023-08-12T00:51:31;9.77;;;5.28;;
42682;SDS011;28293;50.930;3.464;2023-08-12T00:53:57;9.70;;;4.85;;
42682;SDS011;28293;50.930;3.464;2023-08-12T00:56:24;14.95;;;5.55;;
42682;SDS011;28293;50.930;3.464;2023-08-12T00:58:52;10.77;;;5.47;;
42682;SDS011;28293;50.930;3.464;2023-08-12T01:01:18;10.27;;;5.47;;
42682;SDS011;28293;50.930;3.464;2023-08-12T01:03:45;10.85;;;5.40;;
42682;SDS011;28293;50.930;3.464;2023-08-12T01:06:11;13.52;;;5.95;;
42682;SDS011;28293;50.930;3.464;2023-08-12T01:08:37;12.77;;;5.60;;
42682;SDS011;28293;50.930;3.464;2023-08-12T01:16:50;12.02;;;5.53;;
42682;SDS011;28293;50.930;3.464;2023-08-12T01:22:00;12.52;;;5.65;;
42682;SDS011;28293;50.930;3.464;2023-08-12T01:24:26;12.13;;;5.22;;
42682;SDS011;28293;50.930;3.464;2023-08-12T01:26:58;12.00;;;5.70;;
42682;SDS011;28293;50.930;3.464;2023-08-12T01:29:24;9.15;;;5.25;;
42682;SDS011;28293;50.930;3.464;2023-08-12T01:31:51;13.77;;;5.97;;
42682;SDS011;28293;50.930;3.464;2023-08-12T01:36:55;13.63;;;5.72;;
42682;SDS011;28293;50.930;3.464;2023-08-12T01:39:23;11.05;;;5.78;;
42682;SDS011;28293;50.930;3.464;2023-08-12T01:41:50;12.07;;;6.25;;
42682;SDS011;28293;50.930;3.464;2023-08-12T01:44:17;9.50;;;5.43;;
42682;SDS011;28293;50.930;3.464;2023-08-12T01:46:43;12.50;;;6.25;;
42682;SDS011;28293;50.930;3.464;2023-08-12T01:49:09;11.48;;;5.85;;
42682;SDS011;28293;50.930;3.464;2023-08-12T01:51:35;11.35;;;5.50;;
42682;SDS011;28293;50.930;3.464;2023-08-12T01:54:01;11.13;;;5.68;;
42682;SDS011;28293;50.930;3.464;2023-08-12T01:56:26;11.60;;;6.03;;
42682;SDS011;28293;50.930;3.464;2023-08-12T01:58:53;11.40;;;6.57;;
42682;SDS011;28293;50.930;3.464;2023-08-12T02:01:18;13.15;;;7.35;;
42682;SDS011;28293;50.930;3.464;2023-08-12T02:03:44;10.93;;;6.15;;
42682;SDS011;28293;50.930;3.464;2023-08-12T02:06:10;12.93;;;6.85;;
42682;SDS011;28293;50.930;3.464;2023-08-12T02:08:35;15.18;;;7.25;;
42682;SDS011;28293;50.930;3.464;2023-08-12T02:11:01;13.57;;;7.75;;
42682;SDS011;28293;50.930;3.464;2023-08-12T02:13:27;13.35;;;7.32;;
42682;SDS011;28293;50.930;3.464;2023-08-12T02:15:53;13.45;;;8.30;;
42682;SDS011;28293;50.930;3.464;2023-08-12T02:18:18;15.20;;;8.60;;
42682;SDS011;28293;50.930;3.464;2023-08-12T02:20:46;14.18;;;9.23;;
42682;SDS011;28293;50.930;3.464;2023-08-12T02:23:12;15.32;;;8.88;;
42682;SDS011;28293;50.930;3.464;2023-08-12T02:25:38;14.35;;;9.07;;
42682;SDS011;28293;50.930;3.464;2023-08-12T02:28:04;14.05;;;9.57;;
42682;SDS011;28293;50.930;3.464;2023-08-12T02:30:30;15.65;;;9.80;;
42682;SDS011;28293;50.930;3.464;2023-08-12T02:32:55;16.65;;;10.63;;
42682;SDS011;28293;50.930;3.464;2023-08-12T02:35:21;16.92;;;9.70;;
42682;SDS011;28293;50.930;3.464;2023-08-12T02:37:50;15.40;;;10.30;;
42682;SDS011;28293;50.930;3.464;2023-08-12T02:40:16;12.93;;;9.63;;
42682;SDS011;28293;50.930;3.464;2023-08-12T02:42:41;12.57;;;9.48;;
42682;SDS011;28293;50.930;3.464;2023-08-12T02:45:07;14.90;;;10.13;;
42682;SDS011;28293;50.930;3.464;2023-08-12T02:47:33;17.63;;;11.40;;
42682;SDS011;28293;50.930;3.464;2023-08-12T02:49:59;14.00;;;9.60;;
42682;SDS011;28293;50.930;3.464;2023-08-12T02:52:24;17.25;;;10.85;;
42682;SDS011;28293;50.930;3.464;2023-08-12T02:54:50;15.55;;;10.70;;
42682;SDS011;28293;50.930;3.464;2023-08-12T02:57:16;14.43;;;10.40;;
42682;SDS011;28293;50.930;3.464;2023-08-12T02:59:41;14.82;;;10.88;;
42682;SDS011;28293;50.930;3.464;2023-08-12T03:02:07;16.90;;;11.10;;
42682;SDS011;28293;50.930;3.464;2023-08-12T03:04:33;13.40;;;10.65;;
42682;SDS011;28293;50.930;3.464;2023-08-12T03:06:59;13.15;;;10.70;;
42682;SDS011;28293;50.930;3.464;2023-08-12T03:09:24;13.15;;;10.70;;
42682;SDS011;28293;50.930;3.464;2023-08-12T03:11:50;12.98;;;9.60;;
42682;SDS011;28293;50.930;3.464;2023-08-12T03:14:16;11.48;;;9.57;;
42682;SDS011;28293;50.930;3.464;2023-08-12T03:16:41;11.50;;;8.27;;
42682;SDS011;28293;50.930;3.464;2023-08-12T03:19:07;12.05;;;9.40;;
42682;SDS011;28293;50.930;3.464;2023-08-12T03:21:33;11.25;;;8.43;;
42682;SDS011;28293;50.930;3.464;2023-08-12T03:23:59;10.65;;;8.95;;
42682;SDS011;28293;50.930;3.464;2023-08-12T03:26:25;9.43;;;7.20;;
42682;SDS011;28293;50.930;3.464;2023-08-12T03:28:51;11.05;;;7.47;;
42682;SDS011;28293;50.930;3.464;2023-08-12T03:31:16;10.13;;;7.47;;
42682;SDS011;28293;50.930;3.464;2023-08-12T03:33:42;9.95;;;7.47;;
42682;SDS011;28293;50.930;3.464;2023-08-12T03:36:08;8.95;;;7.32;;
42682;SDS011;28293;50.930;3.464;2023-08-12T03:38:34;9.05;;;7.10;;
42682;SDS011;28293;50.930;3.464;2023-08-12T03:41:01;9.23;;;6.80;;
42682;SDS011;28293;50.930;3.464;2023-08-12T03:43:27;9.20;;;6.53;;
42682;SDS011;28293;50.930;3.464;2023-08-12T03:45:53;9.68;;;7.13;;
42682;SDS011;28293;50.930;3.464;2023-08-12T03:48:19;8.98;;;6.38;;
42682;SDS011;28293;50.930;3.464;2023-08-12T03:50:44;9.10;;;6.70;;
42682;SDS011;28293;50.930;3.464;2023-08-12T03:53:11;9.05;;;6.10;;
42682;SDS011;28293;50.930;3.464;2023-08-12T03:55:37;8.77;;;6.00;;
42682;SDS011;28293;50.930;3.464;2023-08-12T03:58:03;7.90;;;5.35;;
42682;SDS011;28293;50.930;3.464;2023-08-12T04:00:29;9.27;;;6.22;;
42682;SDS011;28293;50.930;3.464;2023-08-12T04:02:56;7.35;;;5.82;;
42682;SDS011;28293;50.930;3.464;2023-08-12T04:05:21;9.07;;;5.78;;
42682;SDS011;28293;50.930;3.464;2023-08-12T04:07:47;9.10;;;5.72;;
42682;SDS011;28293;50.930;3.464;2023-08-12T04:10:13;8.15;;;5.65;;
42682;SDS011;28293;50.930;3.464;2023-08-12T04:12:39;7.97;;;6.03;;
42682;SDS011;28293;50.930;3.464;2023-08-12T04:15:06;8.23;;;5.60;;
42682;SDS011;28293;50.930;3.464;2023-08-12T04:17:32;8.35;;;5.30;;
42682;SDS011;28293;50.930;3.464;2023-08-12T04:19:58;7.93;;;5.72;;
42682;SDS011;28293;50.930;3.464;2023-08-12T04:22:24;8.60;;;5.47;;
42682;SDS011;28293;50.930;3.464;2023-08-12T04:24:50;7.63;;;5.00;;
42682;SDS011;28293;50.930;3.464;2023-08-12T04:27:15;8.38;;;5.03;;
42682;SDS011;28293;50.930;3.464;2023-08-12T04:29:42;9.50;;;5.55;;
42682;SDS011;28293;50.930;3.464;2023-08-12T04:32:07;7.63;;;5.55;;
42682;SDS011;28293;50.930;3.464;2023-08-12T04:34:33;8.02;;;6.13;;
42682;SDS011;28293;50.930;3.464;2023-08-12T04:36:59;8.45;;;6.22;;
42682;SDS011;28293;50.930;3.464;2023-08-12T04:39:24;8.48;;;5.93;;
42682;SDS011;28293;50.930;3.464;2023-08-12T04:41:50;8.50;;;6.97;;
42682;SDS011;28293;50.930;3.464;2023-08-12T04:44:16;9.65;;;6.00;;
42682;SDS011;28293;50.930;3.464;2023-08-12T04:46:42;8.68;;;6.30;;
42682;SDS011;28293;50.930;3.464;2023-08-12T04:49:07;7.85;;;6.40;;
42682;SDS011;28293;50.930;3.464;2023-08-12T04:51:33;9.57;;;7.35;;
42682;SDS011;28293;50.930;3.464;2023-08-12T04:53:59;10.70;;;6.93;;
42682;SDS011;28293;50.930;3.464;2023-08-12T04:56:26;9.38;;;7.10;;
42682;SDS011;28293;50.930;3.464;2023-08-12T04:58:54;8.65;;;7.03;;
42682;SDS011;28293;50.930;3.464;2023-08-12T05:01:20;9.10;;;7.03;;
42682;SDS011;28293;50.930;3.464;2023-08-12T05:03:46;9.85;;;7.97;;
42682;SDS011;28293;50.930;3.464;2023-08-12T05:06:12;7.20;;;5.40;;
42682;SDS011;28293;50.930;3.464;2023-08-12T05:08:38;5.97;;;3.95;;
42682;SDS011;28293;50.930;3.464;2023-08-12T05:11:03;6.18;;;3.67;;
42682;SDS011;28293;50.930;3.464;2023-08-12T05:13:29;9.30;;;6.65;;
42682;SDS011;28293;50.930;3.464;2023-08-12T05:15:55;11.30;;;8.05;;
42682;SDS011;28293;50.930;3.464;2023-08-12T05:18:21;12.05;;;8.32;;
42682;SDS011;28293;50.930;3.464;2023-08-12T05:20:48;15.07;;;5.43;;
42682;SDS011;28293;50.930;3.464;2023-08-12T05:23:16;9.95;;;5.85;;
42682;SDS011;28293;50.930;3.464;2023-08-12T05:25:41;10.38;;;6.22;;
42682;SDS011;28293;50.930;3.464;2023-08-12T05:28:07;9.95;;;5.88;;
42682;SDS011;28293;50.930;3.464;2023-08-12T05:30:33;8.05;;;4.30;;
42682;SDS011;28293;50.930;3.464;2023-08-12T05:32:59;9.05;;;4.38;;
42682;SDS011;28293;50.930;3.464;2023-08-12T05:35:24;9.73;;;4.68;;
42682;SDS011;28293;50.930;3.464;2023-08-12T05:37:50;7.22;;;4.15;;
42682;SDS011;28293;50.930;3.464;2023-08-12T05:40:16;7.28;;;3.90;;
42682;SDS011;28293;50.930;3.464;2023-08-12T05:42:41;10.77;;;4.43;;
42682;SDS011;28293;50.930;3.464;2023-08-12T05:45:07;11.77;;;4.50;;
42682;SDS011;28293;50.930;3.464;2023-08-12T05:47:33;10.65;;;4.88;;
42682;SDS011;28293;50.930;3.464;2023-08-12T05:49:59;8.70;;;4.97;;
42682;SDS011;28293;50.930;3.464;2023-08-12T05:52:25;8.75;;;4.28;;
42682;SDS011;28293;50.930;3.464;2023-08-12T05:54:50;9.77;;;4.45;;
42682;SDS011;28293;50.930;3.464;2023-08-12T05:57:16;10.00;;;4.72;;
42682;SDS011;28293;50.930;3.464;2023-08-12T05:59:42;8.15;;;3.58;;
42682;SDS011;28293;50.930;3.464;2023-08-12T06:02:07;11.85;;;4.40;;
42682;SDS011;28293;50.930;3.464;2023-08-12T06:04:34;8.13;;;3.55;;
42682;SDS011;28293;50.930;3.464;2023-08-12T06:07:00;10.07;;;3.55;;
42682;SDS011;28293;50.930;3.464;2023-08-12T06:09:25;7.57;;;3.50;;
42682;SDS011;28293;50.930;3.464;2023-08-12T06:11:51;7.90;;;3.35;;
42682;SDS011;28293;50.930;3.464;2023-08-12T06:14:17;6.63;;;3.47;;
42682;SDS011;28293;50.930;3.464;2023-08-12T06:16:43;9.00;;;3.50;;
42682;SDS011;28293;50.930;3.464;2023-08-12T06:19:08;7.72;;;3.08;;
42682;SDS011;28293;50.930;3.464;2023-08-12T06:21:34;8.48;;;3.55;;
42682;SDS011;28293;50.930;3.464;2023-08-12T06:24:00;9.88;;;3.55;;
42682;SDS011;28293;50.930;3.464;2023-08-12T06:26:26;11.52;;;3.50;;
42682;SDS011;28293;50.930;3.464;2023-08-12T06:28:51;8.93;;;3.30;;
42682;SDS011;28293;50.930;3.464;2023-08-12T06:31:17;7.20;;;3.00;;
42682;SDS011;28293;50.930;3.464;2023-08-12T06:33:43;8.30;;;3.20;;
42682;SDS011;28293;50.930;3.464;2023-08-12T06:36:08;7.35;;;3.00;;
42682;SDS011;28293;50.930;3.464;2023-08-12T06:38:34;8.60;;;3.13;;
42682;SDS011;28293;50.930;3.464;2023-08-12T06:41:00;8.27;;;2.83;;
42682;SDS011;28293;50.930;3.464;2023-08-12T06:43:25;8.15;;;3.40;;
42682;SDS011;28293;50.930;3.464;2023-08-12T06:45:51;7.22;;;2.83;;
42682;SDS011;28293;50.930;3.464;2023-08-12T06:48:17;8.07;;;3.17;;
42682;SDS011;28293;50.930;3.464;2023-08-12T06:50:42;9.23;;;3.08;;
42682;SDS011;28293;50.930;3.464;2023-08-12T06:53:08;8.57;;;2.50;;
42682;SDS011;28293;50.930;3.464;2023-08-12T06:55:34;7.93;;;2.88;;
42682;SDS011;28293;50.930;3.464;2023-08-12T06:58:00;9.48;;;2.90;;
42682;SDS011;28293;50.930;3.464;2023-08-12T07:00:26;9.40;;;2.47;;
42682;SDS011;28293;50.930;3.464;2023-08-12T07:02:52;7.65;;;2.35;;
42682;SDS011;28293;50.930;3.464;2023-08-12T07:05:17;7.53;;;2.47;;
42682;SDS011;28293;50.930;3.464;2023-08-12T07:07:43;8.23;;;2.78;;
42682;SDS011;28293;50.930;3.464;2023-08-12T07:10:09;7.40;;;2.90;;
42682;SDS011;28293;50.930;3.464;2023-08-12T07:12:35;8.38;;;3.33;;
42682;SDS011;28293;50.930;3.464;2023-08-12T07:15:01;8.50;;;3.67;;
42682;SDS011;28293;50.930;3.464;2023-08-12T07:17:27;9.15;;;3.35;;
42682;SDS011;28293;50.930;3.464;2023-08-12T07:19:52;9.77;;;3.92;;
42682;SDS011;28293;50.930;3.464;2023-08-12T07:22:18;10.40;;;4.35;;
42682;SDS011;28293;50.930;3.464;2023-08-12T07:24:45;10.38;;;4.20;;
42682;SDS011;28293;50.930;3.464;2023-08-12T07:27:11;12.10;;;3.58;;
42682;SDS011;28293;50.930;3.464;2023-08-12T07:29:36;9.60;;;3.65;;
42682;SDS011;28293;50.930;3.464;2023-08-12T07:32:02;10.02;;;4.00;;
42682;SDS011;28293;50.930;3.464;2023-08-12T07:34:28;8.93;;;3.58;;
42682;SDS011;28293;50.930;3.464;2023-08-12T07:36:54;8.98;;;3.58;;
42682;SDS011;28293;50.930;3.464;2023-08-12T07:39:19;8.75;;;3.80;;
42682;SDS011;28293;50.930;3.464;2023-08-12T07:41:46;11.27;;;4.20;;
42682;SDS011;28293;50.930;3.464;2023-08-12T07:44:11;11.15;;;3.90;;
42682;SDS011;28293;50.930;3.464;2023-08-12T07:46:37;9.13;;;3.25;;
42682;SDS011;28293;50.930;3.464;2023-08-12T07:49:03;10.15;;;3.20;;
42682;SDS011;28293;50.930;3.464;2023-08-12T07:51:29;7.20;;;2.92;;
42682;SDS011;28293;50.930;3.464;2023-08-12T07:53:55;10.55;;;2.80;;
42682;SDS011;28293;50.930;3.464;2023-08-12T07:56:20;7.38;;;2.90;;
42682;SDS011;28293;50.930;3.464;2023-08-12T07:58:46;9.18;;;2.97;;
42682;SDS011;28293;50.930;3.464;2023-08-12T08:01:12;8.80;;;2.72;;
42682;SDS011;28293;50.930;3.464;2023-08-12T08:03:38;6.60;;;2.60;;
42682;SDS011;28293;50.930;3.464;2023-08-12T08:06:04;8.00;;;2.70;;
42682;SDS011;28293;50.930;3.464;2023-08-12T08:08:30;9.18;;;3.00;;
42682;SDS011;28293;50.930;3.464;2023-08-12T08:10:55;7.57;;;2.78;;
42682;SDS011;28293;50.930;3.464;2023-08-12T08:13:21;8.07;;;3.03;;
42682;SDS011;28293;50.930;3.464;2023-08-12T08:15:46;6.88;;;2.70;;
42682;SDS011;28293;50.930;3.464;2023-08-12T08:18:12;8.02;;;3.10;;
42682;SDS011;28293;50.930;3.464;2023-08-12T08:20:38;5.30;;;2.15;;
42682;SDS011;28293;50.930;3.464;2023-08-12T08:23:04;8.68;;;3.05;;
42682;SDS011;28293;50.930;3.464;2023-08-12T08:25:30;12.10;;;3.40;;
42682;SDS011;28293;50.930;3.464;2023-08-12T08:27:57;11.10;;;3.30;;
42682;SDS011;28293;50.930;3.464;2023-08-12T08:30:22;8.23;;;3.00;;
42682;SDS011;28293;50.930;3.464;2023-08-12T08:32:50;6.95;;;3.17;;
42682;SDS011;28293;50.930;3.464;2023-08-12T08:35:15;10.48;;;3.33;;
42682;SDS011;28293;50.930;3.464;2023-08-12T08:37:41;7.57;;;2.70;;
42682;SDS011;28293;50.930;3.464;2023-08-12T08:40:07;7.40;;;2.83;;
42682;SDS011;28293;50.930;3.464;2023-08-12T08:42:33;9.15;;;3.00;;
42682;SDS011;28293;50.930;3.464;2023-08-12T08:45:00;8.68;;;2.80;;
42682;SDS011;28293;50.930;3.464;2023-08-12T08:47:29;7.72;;;2.83;;
42682;SDS011;28293;50.930;3.464;2023-08-12T08:49:55;11.18;;;2.78;;
42682;SDS011;28293;50.930;3.464;2023-08-12T08:52:22;8.82;;;3.40;;
42682;SDS011;28293;50.930;3.464;2023-08-12T08:54:48;11.52;;;2.78;;
42682;SDS011;28293;50.930;3.464;2023-08-12T08:57:15;9.52;;;2.67;;
42682;SDS011;28293;50.930;3.464;2023-08-12T08:59:41;9.18;;;2.80;;
42682;SDS011;28293;50.930;3.464;2023-08-12T09:02:08;8.63;;;2.42;;
42682;SDS011;28293;50.930;3.464;2023-08-12T09:04:42;6.90;;;2.47;;
42682;SDS011;28293;50.930;3.464;2023-08-12T09:07:11;8.77;;;3.03;;
42682;SDS011;28293;50.930;3.464;2023-08-12T09:09:39;9.20;;;2.90;;
42682;SDS011;28293;50.930;3.464;2023-08-12T09:12:07;6.60;;;2.75;;
42682;SDS011;28293;50.930;3.464;2023-08-12T09:14:34;7.90;;;2.65;;
42682;SDS011;28293;50.930;3.464;2023-08-12T09:17:00;8.73;;;2.78;;
42682;SDS011;28293;50.930;3.464;2023-08-12T09:19:26;9.40;;;3.10;;
42682;SDS011;28293;50.930;3.464;2023-08-12T09:21:55;9.93;;;3.13;;
42682;SDS011;28293;50.930;3.464;2023-08-12T09:24:24;10.40;;;3.10;;
42682;SDS011;28293;50.930;3.464;2023-08-12T09:26:51;7.40;;;2.78;;
42682;SDS011;28293;50.930;3.464;2023-08-12T09:29:18;8.55;;;3.17;;
42682;SDS011;28293;50.930;3.464;2023-08-12T09:31:47;7.93;;;3.28;;
42682;SDS011;28293;50.930;3.464;2023-08-12T09:34:12;9.73;;;3.03;;
42682;SDS011;28293;50.930;3.464;2023-08-12T09:36:38;7.18;;;3.20;;
42682;SDS011;28293;50.930;3.464;2023-08-12T09:39:08;9.13;;;2.90;;
42682;SDS011;28293;50.930;3.464;2023-08-12T09:41:33;9.88;;;3.42;;
42682;SDS011;28293;50.930;3.464;2023-08-12T09:44:01;9.18;;;3.08;;
42682;SDS011;28293;50.930;3.464;2023-08-12T09:46:28;9.75;;;2.75;;
42682;SDS011;28293;50.930;3.464;2023-08-12T09:48:53;10.30;;;2.75;;
42682;SDS011;28293;50.930;3.464;2023-08-12T09:51:19;9.00;;;2.60;;
42682;SDS011;28293;50.930;3.464;2023-08-12T09:53:48;7.93;;;2.58;;
42682;SDS011;28293;50.930;3.464;2023-08-12T09:56:17;6.18;;;2.30;;
42682;SDS011;28293;50.930;3.464;2023-08-12T09:58:46;8.75;;;2.40;;
42682;SDS011;28293;50.930;3.464;2023-08-12T10:01:14;12.18;;;3.17;;
42682;SDS011;28293;50.930;3.464;2023-08-12T10:03:43;8.52;;;2.33;;
42682;SDS011;28293;50.930;3.464;2023-08-12T10:06:14;6.45;;;2.15;;
42682;SDS011;28293;50.930;3.464;2023-08-12T10:08:40;8.43;;;2.38;;
42682;SDS011;28293;50.930;3.464;2023-08-12T10:11:07;9.82;;;2.70;;
42682;SDS011;28293;50.930;3.464;2023-08-12T10:13:34;7.75;;;2.47;;
42682;SDS011;28293;50.930;3.464;2023-08-12T10:16:00;9.35;;;2.60;;
42682;SDS011;28293;50.930;3.464;2023-08-12T10:18:27;8.77;;;2.30;;
42682;SDS011;28293;50.930;3.464;2023-08-12T10:20:56;9.02;;;2.58;;
42682;SDS011;28293;50.930;3.464;2023-08-12T10:23:24;8.27;;;2.13;;
42682;SDS011;28293;50.930;3.464;2023-08-12T10:25:52;9.55;;;2.50;;
42682;SDS011;28293;50.930;3.464;2023-08-12T10:28:19;9.32;;;2.85;;
42682;SDS011;28293;50.930;3.464;2023-08-12T10:30:45;7.80;;;2.28;;
42682;SDS011;28293;50.930;3.464;2023-08-12T10:33:11;9.10;;;2.60;;
42682;SDS011;28293;50.930;3.464;2023-08-12T10:35:45;9.13;;;2.53;;
42682;SDS011;28293;50.930;3.464;2023-08-12T10:38:13;9.70;;;2.40;;
42682;SDS011;28293;50.930;3.464;2023-08-12T10:40:45;10.38;;;2.70;;
42682;SDS011;28293;50.930;3.464;2023-08-12T10:43:12;9.73;;;2.47;;
42682;SDS011;28293;50.930;3.464;2023-08-12T10:45:57;9.23;;;2.33;;
42682;SDS011;28293;50.930;3.464;2023-08-12T10:48:23;7.10;;;2.33;;
42682;SDS011;28293;50.930;3.464;2023-08-12T10:50:53;8.07;;;2.20;;
42682;SDS011;28293;50.930;3.464;2023-08-12T10:53:27;9.18;;;2.13;;
42682;SDS011;28293;50.930;3.464;2023-08-12T10:55:58;8.80;;;2.25;;
42682;SDS011;28293;50.930;3.464;2023-08-12T10:58:45;11.25;;;2.50;;
42682;SDS011;28293;50.930;3.464;2023-08-12T11:01:18;8.82;;;2.72;;
42682;SDS011;28293;50.930;3.464;2023-08-12T11:03:44;8.77;;;2.88;;
42682;SDS011;28293;50.930;3.464;2023-08-12T11:06:10;7.72;;;2.10;;
42682;SDS011;28293;50.930;3.464;2023-08-12T11:08:36;8.25;;;2.05;;
42682;SDS011;28293;50.930;3.464;2023-08-12T11:11:23;10.43;;;2.38;;
42682;SDS011;28293;50.930;3.464;2023-08-12T11:13:56;8.15;;;1.98;;
42682;SDS011;28293;50.930;3.464;2023-08-12T11:16:35;9.25;;;2.20;;
42682;SDS011;28293;50.930;3.464;2023-08-12T11:19:02;7.65;;;2.17;;
42682;SDS011;28293;50.930;3.464;2023-08-12T11:21:28;10.00;;;2.17;;
42682;SDS011;28293;50.930;3.464;2023-08-12T11:23:55;6.43;;;1.90;;
42682;SDS011;28293;50.930;3.464;2023-08-12T11:26:24;9.50;;;2.17;;
42682;SDS011;28293;50.930;3.464;2023-08-12T11:28:50;6.78;;;2.30;;
42682;SDS011;28293;50.930;3.464;2023-08-12T11:31:16;6.80;;;1.88;;
42682;SDS011;28293;50.930;3.464;2023-08-12T11:33:42;9.10;;;2.20;;
42682;SDS011;28293;50.930;3.464;2023-08-12T11:36:08;7.80;;;2.03;;
42682;SDS011;28293;50.930;3.464;2023-08-12T11:38:34;9.60;;;2.35;;
42682;SDS011;28293;50.930;3.464;2023-08-12T11:41:01;8.93;;;2.30;;
42682;SDS011;28293;50.930;3.464;2023-08-12T11:43:27;6.40;;;2.10;;
42682;SDS011;28293;50.930;3.464;2023-08-12T11:45:55;9.80;;;2.03;;
42682;SDS011;28293;50.930;3.464;2023-08-12T11:48:21;7.10;;;2.10;;
42682;SDS011;28293;50.930;3.464;2023-08-12T11:50:48;10.68;;;2.45;;
42682;SDS011;28293;50.930;3.464;2023-08-12T11:53:14;7.68;;;2.15;;
42682;SDS011;28293;50.930;3.464;2023-08-12T11:55:40;9.55;;;2.53;;
42682;SDS011;28293;50.930;3.464;2023-08-12T11:58:05;9.93;;;2.00;;
42682;SDS011;28293;50.930;3.464;2023-08-12T12:00:32;8.93;;;2.10;;
42682;SDS011;28293;50.930;3.464;2023-08-12T12:02:58;9.88;;;2.35;;
42682;SDS011;28293;50.930;3.464;2023-08-12T12:05:28;9.63;;;2.72;;
42682;SDS011;28293;50.930;3.464;2023-08-12T12:07:58;9.90;;;2.72;;
42682;SDS011;28293;50.930;3.464;2023-08-12T12:10:31;8.73;;;2.65;;
42682;SDS011;28293;50.930;3.464;2023-08-12T12:12:58;7.57;;;2.80;;
42682;SDS011;28293;50.930;3.464;2023-08-12T12:15:26;10.32;;;3.05;;
42682;SDS011;28293;50.930;3.464;2023-08-12T12:17:51;10.98;;;2.38;;
42682;SDS011;28293;50.930;3.464;2023-08-12T12:20:18;8.27;;;2.35;;
42682;SDS011;28293;50.930;3.464;2023-08-12T12:22:44;12.15;;;2.78;;
42682;SDS011;28293;50.930;3.464;2023-08-12T12:25:11;10.25;;;2.05;;
42682;SDS011;28293;50.930;3.464;2023-08-12T12:27:38;8.93;;;2.67;;
42682;SDS011;28293;50.930;3.464;2023-08-12T12:30:05;9.88;;;2.30;;
42682;SDS011;28293;50.930;3.464;2023-08-12T12:32:34;8.98;;;2.33;;
42682;SDS011;28293;50.930;3.464;2023-08-12T12:35:00;7.68;;;2.47;;
42682;SDS011;28293;50.930;3.464;2023-08-12T12:37:26;10.35;;;2.42;;
42682;SDS011;28293;50.930;3.464;2023-08-12T12:39:52;9.65;;;2.28;;
42682;SDS011;28293;50.930;3.464;2023-08-12T12:42:18;9.85;;;2.30;;
42682;SDS011;28293;50.930;3.464;2023-08-12T12:44:43;6.15;;;2.00;;
42682;SDS011;28293;50.930;3.464;2023-08-12T12:47:09;9.25;;;2.53;;
42682;SDS011;28293;50.930;3.464;2023-08-12T12:49:37;6.60;;;2.45;;
42682;SDS011;28293;50.930;3.464;2023-08-12T12:52:03;10.60;;;2.50;;
42682;SDS011;28293;50.930;3.464;2023-08-12T12:54:29;9.95;;;2.53;;
42682;SDS011;28293;50.930;3.464;2023-08-12T12:56:56;10.82;;;2.35;;
42682;SDS011;28293;50.930;3.464;2023-08-12T12:59:21;10.27;;;2.65;;
42682;SDS011;28293;50.930;3.464;2023-08-12T13:01:48;9.25;;;2.30;;
42682;SDS011;28293;50.930;3.464;2023-08-12T13:04:14;11.32;;;2.33;;
42682;SDS011;28293;50.930;3.464;2023-08-12T13:06:39;8.48;;;2.25;;
42682;SDS011;28293;50.930;3.464;2023-08-12T13:09:05;8.35;;;2.47;;
42682;SDS011;28293;50.930;3.464;2023-08-12T13:11:31;9.32;;;2.28;;
42682;SDS011;28293;50.930;3.464;2023-08-12T13:14:03;12.15;;;3.00;;
42682;SDS011;28293;50.930;3.464;2023-08-12T13:16:29;12.18;;;2.70;;
42682;SDS011;28293;50.930;3.464;2023-08-12T13:18:55;8.43;;;2.65;;
42682;SDS011;28293;50.930;3.464;2023-08-12T13:21:25;10.57;;;2.90;;
42682;SDS011;28293;50.930;3.464;2023-08-12T13:23:51;8.40;;;2.40;;
42682;SDS011;28293;50.930;3.464;2023-08-12T13:26:17;7.80;;;2.47;;
42682;SDS011;28293;50.930;3.464;2023-08-12T13:28:43;8.27;;;2.70;;
42682;SDS011;28293;50.930;3.464;2023-08-12T13:31:09;10.25;;;2.80;;
42682;SDS011;28293;50.930;3.464;2023-08-12T13:33:35;8.38;;;2.70;;
42682;SDS011;28293;50.930;3.464;2023-08-12T13:36:01;9.43;;;2.60;;
42682;SDS011;28293;50.930;3.464;2023-08-12T13:38:27;12.18;;;2.75;;
42682;SDS011;28293;50.930;3.464;2023-08-12T13:40:52;9.32;;;2.10;;
42682;SDS011;28293;50.930;3.464;2023-08-12T13:43:18;10.05;;;2.97;;
42682;SDS011;28293;50.930;3.464;2023-08-12T13:45:44;9.85;;;2.80;;
42682;SDS011;28293;50.930;3.464;2023-08-12T13:48:09;9.85;;;2.85;;
42682;SDS011;28293;50.930;3.464;2023-08-12T13:50:35;10.02;;;2.88;;
42682;SDS011;28293;50.930;3.464;2023-08-12T13:53:01;8.50;;;2.55;;
42682;SDS011;28293;50.930;3.464;2023-08-12T13:55:27;11.15;;;2.70;;
42682;SDS011;28293;50.930;3.464;2023-08-12T13:57:53;6.50;;;1.98;;
42682;SDS011;28293;50.930;3.464;2023-08-12T14:00:19;7.07;;;2.42;;
42682;SDS011;28293;50.930;3.464;2023-08-12T14:02:44;8.52;;;2.13;;
42682;SDS011;28293;50.930;3.464;2023-08-12T14:05:12;9.15;;;2.47;;
42682;SDS011;28293;50.930;3.464;2023-08-12T14:07:38;9.98;;;2.80;;
42682;SDS011;28293;50.930;3.464;2023-08-12T14:10:04;9.13;;;2.30;;
42682;SDS011;28293;50.930;3.464;2023-08-12T14:12:30;11.13;;;2.60;;
42682;SDS011;28293;50.930;3.464;2023-08-12T14:14:56;10.35;;;2.40;;
42682;SDS011;28293;50.930;3.464;2023-08-12T14:17:22;9.13;;;2.60;;
42682;SDS011;28293;50.930;3.464;2023-08-12T14:19:48;8.38;;;2.28;;
42682;SDS011;28293;50.930;3.464;2023-08-12T14:22:18;8.25;;;2.30;;
42682;SDS011;28293;50.930;3.464;2023-08-12T14:24:44;9.15;;;2.92;;
42682;SDS011;28293;50.930;3.464;2023-08-12T14:27:11;8.40;;;2.25;;
42682;SDS011;28293;50.930;3.464;2023-08-12T14:29:37;7.85;;;2.22;;
42682;SDS011;28293;50.930;3.464;2023-08-12T14:32:03;7.35;;;2.30;;
42682;SDS011;28293;50.930;3.464;2023-08-12T14:34:29;8.13;;;2.05;;
42682;SDS011;28293;50.930;3.464;2023-08-12T14:36:55;10.52;;;2.70;;
42682;SDS011;28293;50.930;3.464;2023-08-12T14:39:21;6.88;;;2.28;;
42682;SDS011;28293;50.930;3.464;2023-08-12T14:41:47;6.85;;;2.13;;
42682;SDS011;28293;50.930;3.464;2023-08-12T14:44:13;6.32;;;1.85;;
42682;SDS011;28293;50.930;3.464;2023-08-12T14:46:39;8.25;;;2.33;;
42682;SDS011;28293;50.930;3.464;2023-08-12T14:49:04;10.30;;;2.85;;